Time;durP1;ratioP1;P1;durP2;ratioP2;P2;SDS_P1;SDS_P2;PMS_P1;PMS_P2;Temp;Humidity;BMP_temperature;BMP_pressure;BME280_temperature;BME280_humidity;BME280_pressure;Samples;Min_cycle;Max_cycle;Signal;HPM_P1;HPM_P2
2021/03/14 00:00:18;;;;;;;0.88;0.50;;;4.10;33.70;;;;;;4907064;29;20059;-72
2021/03/14 00:02:45;;;;;;;2.70;0.60;;;4.10;34.20;;;;;;4906154;29;20048;-73
2021/03/14 00:05:13;;;;;;;0.60;0.50;;;4.10;34.00;;;;;;4907400;29;20052;-73
2021/03/14 00:07:41;;;;;;;3.63;1.13;;;4.10;34.10;;;;;;4905073;29;20048;-72
2021/03/14 00:10:09;;;;;;;3.00;0.63;;;4.00;34.10;;;;;;4906592;29;20055;-74
2021/03/14 00:12:36;;;;;;;0.85;0.63;;;4.10;34.10;;;;;;4905062;29;20052;-74
2021/03/14 00:15:03;;;;;;;0.93;0.82;;;4.10;33.50;;;;;;4905913;29;20071;-73
2021/03/14 00:17:31;;;;;;;1.25;0.80;;;4.10;33.30;;;;;;4906805;29;20392;-72
2021/03/14 00:19:58;;;;;;;1.30;0.60;;;4.20;33.20;;;;;;4905485;29;20131;-73
2021/03/14 00:22:25;;;;;;;4.57;0.75;;;4.20;31.10;;;;;;4904148;29;20134;-73
2021/03/14 00:24:52;;;;;;;0.80;0.50;;;4.30;31.70;;;;;;4906291;29;20055;-72
2021/03/14 00:27:19;;;;;;;4.10;0.90;;;4.20;30.40;;;;;;4905570;29;20439;-73
2021/03/14 00:29:46;;;;;;;4.32;1.08;;;4.10;29.90;;;;;;4893315;29;20048;-73
2021/03/14 00:32:13;;;;;;;1.73;0.88;;;4.00;30.10;;;;;;4905275;29;20076;-74
2021/03/14 00:34:42;;;;;;;3.10;1.00;;;4.00;31.10;;;;;;4906593;29;20132;-72
2021/03/14 00:37:09;;;;;;;5.63;1.40;;;4.00;32.60;;;;;;4904409;29;20051;-72
2021/03/14 00:39:36;;;;;;;3.60;0.90;;;3.90;32.90;;;;;;4905385;29;20048;-71
2021/03/14 00:42:04;;;;;;;2.00;0.90;;;3.80;32.90;;;;;;4905307;29;20064;-71
2021/03/14 00:44:31;;;;;;;1.33;0.77;;;3.70;33.10;;;;;;4902463;29;20068;-70
2021/03/14 00:46:57;;;;;;;2.78;0.70;;;3.80;35.00;;;;;;4894257;29;20519;-73
2021/03/14 00:49:25;;;;;;;3.08;0.80;;;3.70;35.50;;;;;;4904286;29;20071;-74
2021/03/14 00:51:52;;;;;;;2.75;0.93;;;3.70;36.80;;;;;;4902672;29;20044;-73
2021/03/14 00:54:20;;;;;;;3.72;1.13;;;3.60;35.80;;;;;;4905722;29;20059;-72
2021/03/14 00:56:46;;;;;;;2.10;0.80;;;3.50;34.00;;;;;;4904194;29;20073;-72
2021/03/14 00:59:13;;;;;;;2.15;0.82;;;3.50;35.70;;;;;;4905194;29;20056;-72
2021/03/14 01:01:41;;;;;;;3.90;0.85;;;3.60;36.90;;;;;;4905093;29;20140;-72
2021/03/14 01:04:08;;;;;;;1.63;0.70;;;3.60;37.90;;;;;;4906271;29;20059;-73
2021/03/14 01:06:35;;;;;;;2.00;0.75;;;3.60;38.00;;;;;;4902800;29;20051;-73
2021/03/14 01:09:03;;;;;;;0.68;0.38;;;3.60;39.00;;;;;;4902849;29;20060;-75
2021/03/14 01:11:30;;;;;;;0.60;0.40;;;3.50;36.80;;;;;;4902390;29;20059;-74
2021/03/14 01:13:57;;;;;;;0.50;0.30;;;3.50;37.80;;;;;;4901506;29;20761;-72
2021/03/14 01:16:24;;;;;;;0.70;0.40;;;3.50;38.20;;;;;;4898118;29;20063;-74
2021/03/14 01:18:52;;;;;;;0.52;0.43;;;3.50;39.00;;;;;;4901363;29;20507;-73
2021/03/14 01:21:19;;;;;;;0.75;0.30;;;3.50;38.10;;;;;;4903726;29;20131;-73
2021/03/14 01:23:46;;;;;;;1.25;0.30;;;3.50;38.50;;;;;;4901330;29;20527;-73
2021/03/14 01:26:14;;;;;;;0.70;0.43;;;3.60;39.90;;;;;;4899696;29;20502;-73
2021/03/14 01:28:41;;;;;;;0.95;0.35;;;3.60;37.30;;;;;;4901390;29;20063;-74
2021/03/14 01:31:09;;;;;;;1.48;0.20;;;3.60;36.90;;;;;;4903606;29;20056;-74
2021/03/14 01:33:36;;;;;;;0.30;0.20;;;3.60;35.80;;;;;;4904108;29;20062;-73
2021/03/14 01:36:04;;;;;;;0.50;0.25;;;3.60;36.70;;;;;;4898769;29;20068;-72
2021/03/14 01:38:31;;;;;;;0.60;0.32;;;3.70;36.10;;;;;;4901039;29;20807;-73
2021/03/14 01:40:58;;;;;;;0.40;0.30;;;3.70;37.00;;;;;;4904341;29;20056;-72
2021/03/14 01:43:28;;;;;;;0.50;0.30;;;3.60;36.50;;;;;;4905479;29;20055;-74
2021/03/14 01:45:55;;;;;;;1.80;0.40;;;3.60;33.90;;;;;;4900894;29;20054;-71
2021/03/14 01:48:25;;;;;;;0.68;0.30;;;3.60;35.50;;;;;;4901946;29;20052;-74
2021/03/14 01:50:53;;;;;;;0.90;0.50;;;3.60;35.10;;;;;;4904188;29;20079;-70
2021/03/14 01:53:20;;;;;;;0.98;0.60;;;3.50;34.40;;;;;;4904967;29;20503;-73
2021/03/14 01:55:47;;;;;;;1.20;0.57;;;3.50;35.40;;;;;;4901003;29;20159;-73
2021/03/14 01:58:16;;;;;;;1.98;0.70;;;3.40;35.70;;;;;;4906824;29;20062;-73
2021/03/14 02:00:44;;;;;;;0.60;0.60;;;3.40;35.10;;;;;;4906604;29;20048;-73
2021/03/14 02:03:11;;;;;;;0.85;0.63;;;3.50;35.80;;;;;;4903445;29;20049;-72
2021/03/14 02:05:38;;;;;;;1.95;0.75;;;3.40;35.30;;;;;;4899711;29;20587;-71
2021/03/14 02:08:07;;;;;;;1.65;0.77;;;3.40;34.60;;;;;;4898508;29;20056;-72
2021/03/14 02:10:36;;;;;;;1.17;0.75;;;3.40;35.00;;;;;;4905566;29;20056;-71
2021/03/14 02:13:07;;;;;;;1.55;0.90;;;3.50;35.00;;;;;;4901904;29;20052;-70
2021/03/14 02:15:40;;;;;;;1.08;0.80;;;3.50;33.80;;;;;;4902302;29;20075;-72
2021/03/14 02:18:10;;;;;;;1.88;0.80;;;3.50;32.60;;;;;;4893888;29;20044;-72
2021/03/14 02:20:38;;;;;;;1.30;1.05;;;3.50;33.60;;;;;;4905568;29;20076;-72
2021/03/14 02:23:14;;;;;;;1.92;1.00;;;3.50;32.60;;;;;;4902699;29;20082;-72
2021/03/14 02:25:47;;;;;;;2.65;1.30;;;3.40;32.00;;;;;;4908471;29;20139;-71
2021/03/14 02:28:15;;;;;;;2.45;1.17;;;3.50;33.10;;;;;;4894274;29;20087;-72
2021/03/14 02:30:43;;;;;;;3.67;1.40;;;3.40;33.70;;;;;;4906169;29;20058;-73
2021/03/14 02:33:12;;;;;;;3.88;1.38;;;3.40;32.50;;;;;;4906760;29;20051;-73
2021/03/14 02:35:44;;;;;;;4.60;1.45;;;3.40;35.40;;;;;;4904477;29;20061;-74
2021/03/14 02:38:11;;;;;;;2.38;1.27;;;3.40;34.50;;;;;;4901025;29;20044;-73
2021/03/14 02:40:39;;;;;;;4.38;1.77;;;3.40;34.30;;;;;;4907054;29;20068;-69
2021/03/14 02:43:07;;;;;;;4.28;2.05;;;3.40;35.40;;;;;;4903265;29;20415;-72
2021/03/14 02:45:35;;;;;;;4.30;2.17;;;3.40;34.80;;;;;;4910570;29;20052;-71
2021/03/14 02:48:04;;;;;;;3.03;2.13;;;3.40;36.70;;;;;;4899360;29;20048;-72
2021/03/14 02:50:32;;;;;;;4.95;2.25;;;3.40;33.60;;;;;;4904516;29;20143;-72
2021/03/14 02:53:00;;;;;;;3.55;2.25;;;3.40;33.00;;;;;;4905897;29;20150;-73
2021/03/14 02:55:27;;;;;;;5.70;2.30;;;3.40;35.00;;;;;;4905698;29;20060;-72
2021/03/14 02:57:55;;;;;;;5.28;2.13;;;3.40;33.70;;;;;;4899961;29;20049;-72
2021/03/14 03:00:24;;;;;;;8.20;2.47;;;3.40;33.80;;;;;;4907403;29;20056;-71
2021/03/14 03:02:55;;;;;;;6.00;2.67;;;3.40;34.90;;;;;;4903827;29;20170;-73
2021/03/14 03:05:23;;;;;;;5.03;2.58;;;3.40;34.30;;;;;;4905998;29;20141;-73
2021/03/14 03:07:52;;;;;;;4.55;2.80;;;3.40;34.10;;;;;;4899818;29;20055;-73
2021/03/14 03:10:20;;;;;;;7.18;2.63;;;3.40;32.50;;;;;;4901531;29;20108;-73
2021/03/14 03:12:49;;;;;;;5.28;2.80;;;3.40;33.60;;;;;;4906225;29;20052;-70
2021/03/14 03:15:18;;;;;;;4.30;2.40;;;3.50;33.40;;;;;;4906723;29;20067;-72
2021/03/14 03:17:47;;;;;;;2.97;2.47;;;3.50;33.30;;;;;;4900525;29;20045;-73
2021/03/14 03:20:24;;;;;;;2.47;1.70;;;3.50;34.00;;;;;;4909431;29;20048;-73
2021/03/14 03:22:51;;;;;;;5.47;1.73;;;3.50;33.70;;;;;;4911137;29;20048;-73
2021/03/14 03:25:18;;;;;;;2.63;1.70;;;3.50;33.40;;;;;;4903509;29;20143;-72
2021/03/14 03:27:45;;;;;;;1.70;1.38;;;3.50;34.40;;;;;;4904682;29;20044;-70
2021/03/14 03:30:15;;;;;;;2.85;1.83;;;3.40;33.40;;;;;;4903741;29;20060;-70
2021/03/14 03:32:45;;;;;;;2.70;1.80;;;3.40;35.60;;;;;;4908834;29;20056;-71
2021/03/14 03:35:14;;;;;;;2.30;1.70;;;3.40;33.60;;;;;;4909738;29;20463;-73
2021/03/14 03:37:42;;;;;;;1.83;1.40;;;3.30;35.80;;;;;;4901029;29;20085;-73
2021/03/14 03:40:12;;;;;;;2.63;1.67;;;3.30;35.30;;;;;;4908366;29;20048;-73
2021/03/14 03:42:47;;;;;;;2.83;1.92;;;3.30;34.30;;;;;;4908041;29;20052;-73
2021/03/14 03:45:15;;;;;;;5.05;1.90;;;3.30;35.30;;;;;;4910120;29;20473;-73
2021/03/14 03:47:43;;;;;;;3.60;1.85;;;3.30;35.90;;;;;;4905447;29;20438;-73
2021/03/14 03:50:13;;;;;;;8.57;1.90;;;3.30;34.70;;;;;;4905885;29;20056;-72
2021/03/14 03:52:43;;;;;;;3.72;2.30;;;3.20;34.60;;;;;;4906090;29;20112;-73
2021/03/14 03:55:11;;;;;;;2.65;1.88;;;3.30;34.90;;;;;;4904037;29;20047;-72
2021/03/14 03:57:40;;;;;;;4.13;2.20;;;3.20;34.00;;;;;;4898804;29;20099;-72
2021/03/14 04:00:10;;;;;;;4.15;2.20;;;3.20;34.20;;;;;;4909364;29;20075;-74
2021/03/14 04:02:38;;;;;;;3.15;2.25;;;3.20;34.70;;;;;;4902048;29;20517;-74
2021/03/14 04:05:08;;;;;;;5.65;2.20;;;3.20;33.90;;;;;;4906246;29;20052;-73
2021/03/14 04:07:37;;;;;;;4.93;2.65;;;3.20;34.30;;;;;;4898607;29;20112;-72
2021/03/14 04:10:10;;;;;;;5.05;2.72;;;3.20;33.30;;;;;;4910462;29;20063;-72
2021/03/14 04:12:38;;;;;;;2.65;2.17;;;3.20;33.70;;;;;;4909387;29;20059;-72
2021/03/14 04:15:08;;;;;;;7.35;2.05;;;3.20;32.50;;;;;;4905422;29;20143;-73
2021/03/14 04:17:36;;;;;;;8.20;2.03;;;3.30;33.10;;;;;;4896148;29;20503;-72
2021/03/14 04:20:07;;;;;;;2.92;2.13;;;3.30;33.50;;;;;;4903055;29;20060;-72
2021/03/14 04:22:36;;;;;;;2.28;1.60;;;3.30;31.80;;;;;;4908055;29;20516;-73
2021/03/14 04:25:04;;;;;;;4.00;1.85;;;3.40;29.60;;;;;;4902378;29;20056;-72
2021/03/14 04:27:33;;;;;;;4.40;1.45;;;3.30;28.70;;;;;;4900277;29;20087;-72
2021/03/14 04:30:01;;;;;;;2.67;1.58;;;3.30;28.70;;;;;;4906075;29;20052;-72
2021/03/14 04:32:28;;;;;;;4.90;2.25;;;3.40;29.20;;;;;;4904574;29;20052;-73
2021/03/14 04:34:56;;;;;;;4.07;1.73;;;3.40;28.70;;;;;;4906538;29;20049;-73
2021/03/14 04:37:24;;;;;;;7.00;2.00;;;3.40;28.70;;;;;;4896977;29;20044;-73
2021/03/14 04:39:52;;;;;;;3.70;1.80;;;3.40;27.70;;;;;;4901984;29;20079;-73
2021/03/14 04:42:19;;;;;;;4.38;1.98;;;3.50;28.30;;;;;;4903601;29;20056;-73
2021/03/14 04:44:49;;;;;;;2.58;1.70;;;3.50;28.00;;;;;;4904284;29;20510;-71
2021/03/14 04:47:16;;;;;;;2.63;1.85;;;3.50;27.70;;;;;;4896629;29;20064;-73
2021/03/14 04:49:44;;;;;;;3.25;1.95;;;3.50;28.30;;;;;;4901797;29;20052;-72
2021/03/14 04:52:12;;;;;;;5.78;2.03;;;3.60;28.70;;;;;;4903398;29;20056;-72
2021/03/14 04:54:40;;;;;;;3.22;1.48;;;3.60;27.90;;;;;;4904237;29;20511;-73
2021/03/14 04:57:07;;;;;;;4.00;1.70;;;3.50;26.80;;;;;;4898315;29;20056;-74
2021/03/14 04:59:37;;;;;;;2.25;1.70;;;3.50;27.40;;;;;;4903153;29;20059;-73
2021/03/14 05:02:06;;;;;;;4.30;1.90;;;3.50;28.30;;;;;;4900163;29;20076;-73
2021/03/14 05:04:34;;;;;;;2.05;1.33;;;3.50;28.40;;;;;;4905149;29;20047;-72
2021/03/14 05:07:01;;;;;;;2.17;1.42;;;3.50;27.50;;;;;;4899766;29;20726;-72
2021/03/14 05:09:29;;;;;;;4.82;1.70;;;3.40;26.80;;;;;;4900993;29;20055;-71
2021/03/14 05:11:56;;;;;;;2.45;1.63;;;3.40;28.40;;;;;;4904496;29;20066;-73
2021/03/14 05:14:23;;;;;;;3.05;1.65;;;3.40;28.20;;;;;;4903123;29;20515;-73
2021/03/14 05:16:50;;;;;;;5.28;1.70;;;3.30;27.50;;;;;;4896718;29;20052;-74
2021/03/14 05:19:19;;;;;;;3.53;1.58;;;3.30;27.90;;;;;;4901217;29;20052;-74
2021/03/14 05:21:57;;;;;;;1.83;1.42;;;3.40;28.00;;;;;;4904454;29;20071;-74
2021/03/14 05:24:24;;;;;;;3.38;1.58;;;3.30;26.90;;;;;;4906033;29;20087;-74
2021/03/14 05:26:52;;;;;;;4.13;1.40;;;3.30;26.40;;;;;;4905408;29;20048;-73
2021/03/14 05:29:20;;;;;;;2.65;1.52;;;3.30;26.50;;;;;;4904989;29;20127;-73
2021/03/14 05:31:48;;;;;;;4.72;2.00;;;3.40;25.60;;;;;;4905998;29;20049;-74
2021/03/14 05:34:17;;;;;;;3.17;1.60;;;3.40;25.40;;;;;;4905812;29;20053;-75
2021/03/14 05:36:45;;;;;;;5.82;1.70;;;3.50;26.00;;;;;;4903168;29;20048;-74
2021/03/14 05:39:14;;;;;;;7.15;2.05;;;3.50;25.10;;;;;;4904852;29;20496;-75
2021/03/14 05:41:42;;;;;;;2.63;1.30;;;3.50;23.90;;;;;;4909010;29;20400;-74
2021/03/14 05:44:11;;;;;;;2.17;1.40;;;3.50;23.40;;;;;;4906815;29;20677;-75
2021/03/14 05:46:38;;;;;;;2.03;1.52;;;3.50;23.10;;;;;;4904580;29;20048;-74
2021/03/14 05:49:06;;;;;;;5.95;1.60;;;3.50;23.30;;;;;;4902254;29;20056;-75
2021/03/14 05:51:35;;;;;;;3.95;1.50;;;3.40;22.30;;;;;;4907407;29;20549;-73
2021/03/14 05:54:03;;;;;;;2.10;1.13;;;3.40;22.00;;;;;;4908664;29;20056;-74
2021/03/14 05:56:32;;;;;;;2.35;1.80;;;3.50;22.10;;;;;;4907385;29;20056;-73
2021/03/14 05:59:01;;;;;;;3.28;1.60;;;3.40;22.00;;;;;;4899490;29;20056;-74
2021/03/14 06:01:29;;;;;;;3.72;1.70;;;3.40;22.00;;;;;;4908792;29;20067;-75
2021/03/14 06:03:58;;;;;;;2.88;1.88;;;3.50;22.10;;;;;;4905916;29;20476;-74
2021/03/14 06:06:25;;;;;;;6.35;2.15;;;3.50;21.90;;;;;;4907492;29;20408;-75
2021/03/14 06:08:52;;;;;;;8.18;2.25;;;3.50;21.80;;;;;;4904105;29;20628;-75
2021/03/14 06:11:20;;;;;;;4.93;1.70;;;3.50;21.50;;;;;;4905181;29;20157;-74
2021/03/14 06:13:47;;;;;;;2.70;1.70;;;3.50;22.10;;;;;;4904482;29;20426;-73
2021/03/14 06:16:14;;;;;;;2.72;1.92;;;3.60;21.60;;;;;;4905170;29;20083;-74
2021/03/14 06:18:43;;;;;;;5.47;2.08;;;3.50;21.60;;;;;;4903520;29;20444;-74
2021/03/14 06:21:20;;;;;;;4.50;1.80;;;3.50;20.50;;;;;;4904694;29;20052;-74
2021/03/14 06:24:00;;;;;;;4.90;1.65;;;3.50;20.60;;;;;;4904460;29;20056;-73
2021/03/14 06:26:49;;;;;;;4.75;1.90;;;3.50;21.20;;;;;;4903934;29;20151;-75
2021/03/14 06:29:24;;;;;;;6.20;1.73;;;3.60;20.10;;;;;;4898468;29;20048;-74
2021/03/14 06:31:51;;;;;;;;;;;3.60;19.30;;;;;;4906817;29;20057;-74
2021/03/14 06:34:28;;;;;;;1.77;1.30;;;3.60;20.00;;;;;;4904595;29;19923;-73
2021/03/14 06:36:56;;;;;;;4.07;2.15;;;3.50;19.10;;;;;;4904733;29;20049;-74
2021/03/14 06:39:24;;;;;;;5.57;1.90;;;3.60;18.90;;;;;;4903678;29;20080;-75
2021/03/14 06:41:53;;;;;;;5.15;2.22;;;3.60;18.40;;;;;;4905717;29;20404;-74
2021/03/14 06:44:40;;;;;;;2.63;1.45;;;3.60;18.70;;;;;;4902179;29;20059;-74
2021/03/14 06:47:07;;;;;;;5.85;1.67;;;3.70;17.60;;;;;;4905446;29;20045;-75
2021/03/14 06:49:39;;;;;;;5.03;1.92;;;3.70;16.00;;;;;;4901002;29;20052;-75
2021/03/14 06:52:08;;;;;;;3.97;1.65;;;3.70;15.60;;;;;;4906099;29;20052;-74
2021/03/14 06:54:37;;;;;;;2.65;1.33;;;3.70;15.30;;;;;;4902588;29;20056;-74
2021/03/14 06:57:07;;;;;;;3.10;1.50;;;3.80;15.30;;;;;;4904777;29;20052;-74
2021/03/14 06:59:36;;;;;;;3.70;1.60;;;3.70;13.90;;;;;;4902086;29;20431;-75
2021/03/14 07:02:08;;;;;;;3.22;1.30;;;3.90;14.00;;;;;;4903258;29;20060;-74
2021/03/14 07:04:46;;;;;;;7.05;1.13;;;3.80;13.60;;;;;;4903611;29;20521;-74
2021/03/14 07:07:16;;;;;;;2.58;1.58;;;3.80;13.10;;;;;;4903922;29;20052;-74
2021/03/14 07:09:43;;;;;;;3.05;1.60;;;3.80;14.10;;;;;;4902678;29;20052;-74
2021/03/14 07:12:18;;;;;;;4.45;1.30;;;3.80;13.10;;;;;;4904316;29;20052;-74
2021/03/14 07:14:45;;;;;;;;;;;3.80;13.10;;;;;;4903812;29;20048;-74
2021/03/14 07:17:25;;;;;;;4.90;2.28;;;3.80;13.70;;;;;;4903410;29;19930;-72
2021/03/14 07:19:56;;;;;;;6.78;1.63;;;3.80;14.50;;;;;;4906021;29;20418;-71
2021/03/14 07:22:25;;;;;;;4.40;1.80;;;3.60;16.60;;;;;;4905739;29;20201;-71
2021/03/14 07:24:52;;;;;;;5.10;1.50;;;3.70;17.80;;;;;;4903185;29;20053;-72
2021/03/14 07:27:23;;;;;;;4.63;1.33;;;3.70;17.90;;;;;;4908153;29;20127;-75
2021/03/14 07:29:51;;;;;;;7.68;2.13;;;3.80;17.80;;;;;;4907948;29;20049;-73
2021/03/14 07:32:19;;;;;;;9.18;1.88;;;3.90;17.20;;;;;;4903529;29;20080;-73
2021/03/14 07:34:47;;;;;;;5.13;1.73;;;3.90;15.80;;;;;;4905920;29;20050;-73
2021/03/14 07:37:15;;;;;;;5.13;1.50;;;3.90;15.40;;;;;;4906671;29;20511;-72
2021/03/14 07:39:42;;;;;;;6.45;1.95;;;3.90;12.70;;;;;;4907854;29;20053;-73
2021/03/14 07:42:11;;;;;;;5.97;1.73;;;3.90;11.50;;;;;;4906679;29;20052;-73
2021/03/14 07:44:39;;;;;;;3.25;1.40;;;3.90;10.80;;;;;;4905628;29;20048;-71
2021/03/14 07:47:06;;;;;;;5.57;1.55;;;4.00;10.40;;;;;;4905949;29;20048;-73
2021/03/14 07:49:36;;;;;;;3.03;1.65;;;4.00;10.70;;;;;;4909089;29;20052;-74
2021/03/14 07:52:06;;;;;;;5.13;1.73;;;4.00;11.40;;;;;;4909055;29;20057;-73
2021/03/14 07:54:39;;;;;;;4.25;1.70;;;4.00;11.50;;;;;;4907893;29;20052;-74
2021/03/14 07:57:08;;;;;;;2.95;1.35;;;3.90;10.80;;;;;;4907058;29;20048;-74
2021/03/14 07:59:35;;;;;;;6.28;1.58;;;4.00;11.30;;;;;;4904867;29;20049;-74
2021/03/14 08:02:26;;;;;;;5.80;2.10;;;4.10;9.40;;;;;;4906630;29;20062;-74
2021/03/14 08:04:54;;;;;;;4.72;1.40;;;4.30;7.90;;;;;;4906610;29;20048;-75
2021/03/14 08:07:43;;;;;;;4.90;1.30;;;4.40;8.60;;;;;;4908230;29;20055;-74
2021/03/14 08:10:11;;;;;;;5.55;1.52;;;4.40;7.30;;;;;;4902002;29;20052;-74
2021/03/14 08:12:39;;;;;;;6.00;1.40;;;4.40;7.40;;;;;;4905589;29;20052;-74
2021/03/14 08:15:21;;;;;;;6.75;1.73;;;4.60;6.60;;;;;;4904926;29;20402;-73
2021/03/14 08:17:49;;;;;;;4.15;1.75;;;4.70;6.50;;;;;;4905593;29;20091;-73
2021/03/14 08:20:39;;;;;;;3.63;1.58;;;4.90;5.40;;;;;;4902133;29;20056;-74
2021/03/14 08:23:08;;;;;;;5.28;2.15;;;4.80;5.90;;;;;;4905357;29;20049;-74
2021/03/14 08:25:38;;;;;;;2.65;1.00;;;4.70;5.10;;;;;;4905208;29;20070;-75
2021/03/14 08:28:31;;;;;;;5.80;1.42;;;4.80;4.20;;;;;;4910378;29;20061;-75
2021/03/14 08:31:00;;;;;;;6.15;1.70;;;4.70;6.00;;;;;;4902013;29;20048;-74
2021/03/14 08:33:44;;;;;;;6.53;1.33;;;4.90;4.10;;;;;;4906363;29;20049;-75
2021/03/14 08:36:13;;;;;;;7.30;1.50;;;5.10;3.60;;;;;;4906950;29;20082;-76
2021/03/14 08:38:45;;;;;;;4.03;1.23;;;5.10;3.80;;;;;;4903901;29;20049;-76
2021/03/14 08:41:24;;;;;;;5.70;1.30;;;5.30;3.60;;;;;;4906258;29;20554;-76
2021/03/14 08:43:53;;;;;;;2.88;1.25;;;5.30;1.80;;;;;;4908901;29;20072;-74
2021/03/14 08:46:20;;;;;;;2.30;1.30;;;5.90;1.00;;;;;;4909761;29;20058;-76
2021/03/14 08:48:48;;;;;;;3.65;1.00;;;5.90;1.00;;;;;;4906679;29;20044;-75
2021/03/14 08:51:15;;;;;;;2.25;1.00;;;5.70;1.00;;;;;;4909966;29;20052;-74
2021/03/14 08:53:42;;;;;;;2.90;1.15;;;5.50;1.00;;;;;;4908565;29;20048;-75
2021/03/14 08:56:11;;;;;;;3.55;1.20;;;5.30;1.00;;;;;;4904986;29;20055;-75
2021/03/14 08:58:38;;;;;;;1.90;1.27;;;5.30;1.00;;;;;;4905368;29;20048;-76
2021/03/14 09:01:06;;;;;;;5.38;1.40;;;5.50;1.00;;;;;;4908245;29;20052;-75
2021/03/14 09:03:40;;;;;;;3.28;1.05;;;5.70;1.00;;;;;;4905270;29;20052;-76
2021/03/14 09:06:30;;;;;;;2.20;0.88;;;5.60;1.00;;;;;;4896036;29;20056;-76
2021/03/14 09:08:58;;;;;;;2.67;0.88;;;5.70;1.00;;;;;;4899000;29;20052;-76
2021/03/14 09:11:43;;;;;;;3.97;0.95;;;5.50;1.00;;;;;;4898658;29;20072;-76
2021/03/14 09:14:23;;;;;;;4.78;0.90;;;5.70;1.00;;;;;;4889320;29;20052;-75
2021/03/14 09:16:50;;;;;;;4.40;1.13;;;5.70;1.00;;;;;;4890834;29;20062;-74
2021/03/14 09:19:25;;;;;;;3.03;1.15;;;5.70;1.00;;;;;;4898561;29;20492;-76
2021/03/14 09:21:55;;;;;;;2.35;1.00;;;5.60;1.00;;;;;;4914947;29;20498;-76
2021/03/14 09:24:39;;;;;;;4.07;1.02;;;5.80;1.00;;;;;;4899642;29;20067;-75
2021/03/14 09:27:08;;;;;;;5.60;0.93;;;5.70;1.00;;;;;;4904502;29;20078;-75
2021/03/14 09:29:56;;;;;;;3.20;1.52;;;5.40;1.00;;;;;;4908843;29;20056;-76
2021/03/14 09:32:32;;;;;;;4.28;1.30;;;5.70;1.00;;;;;;4909836;29;20052;-76
2021/03/14 09:35:25;;;;;;;3.63;1.30;;;5.60;1.00;;;;;;4902084;29;20120;-75
2021/03/14 09:37:55;;;;;;;4.40;1.33;;;5.80;1.00;;;;;;4899941;29;20063;-76
2021/03/14 09:40:31;;;;;;;2.47;1.35;;;6.00;1.00;;;;;;4911005;29;20063;-76
2021/03/14 09:43:13;;;;;;;5.07;1.00;;;6.40;1.00;;;;;;4904297;29;20052;-76
2021/03/14 09:45:42;;;;;;;3.38;0.88;;;6.30;1.00;;;;;;4901904;29;20056;-75
2021/03/14 09:48:15;;;;;;;5.03;1.15;;;6.40;1.00;;;;;;4898236;29;20660;-75
2021/03/14 09:50:45;;;;;;;6.63;1.40;;;6.00;1.00;;;;;;4909311;29;20053;-76
2021/03/14 09:53:15;;;;;;;3.30;1.23;;;5.80;1.00;;;;;;4902732;29;20132;-76
2021/03/14 09:55:44;;;;;;;3.35;1.10;;;5.60;1.00;;;;;;4889278;29;20367;-76
2021/03/14 10:05:15;;;;;;;3.60;1.15;;;6.00;1.00;;;;;;4910035;29;20052;-78
2021/03/14 10:07:42;;;;;;;5.75;1.55;;;6.10;1.00;;;;;;4899539;29;20071;-76
2021/03/14 10:10:12;;;;;;;4.22;1.30;;;6.30;1.00;;;;;;4900687;29;20531;-76
2021/03/14 10:12:40;;;;;;;5.25;1.45;;;5.80;1.00;;;;;;4896464;29;20135;-76
2021/03/14 10:15:07;;;;;;;3.00;1.25;;;5.90;1.00;;;;;;4897615;29;20405;-76
2021/03/14 10:17:37;;;;;;;5.38;1.23;;;5.80;1.00;;;;;;4908288;29;20056;-76
2021/03/14 10:20:05;;;;;;;3.67;0.85;;;6.00;1.00;;;;;;4892864;29;20052;-76
2021/03/14 10:22:33;;;;;;;3.47;0.95;;;6.10;1.00;;;;;;4906483;29;20507;-74
2021/03/14 10:25:00;;;;;;;5.50;1.00;;;6.20;1.00;;;;;;4902269;29;20499;-75
2021/03/14 10:27:28;;;;;;;4.30;1.30;;;6.20;1.00;;;;;;4904144;29;20054;-75
2021/03/14 10:29:56;;;;;;;2.83;0.80;;;6.00;1.00;;;;;;4905562;29;20052;-75
2021/03/14 10:32:25;;;;;;;4.57;0.90;;;6.00;1.00;;;;;;4904325;29;20056;-75
2021/03/14 10:34:54;;;;;;;3.92;1.17;;;6.00;1.00;;;;;;4904546;29;20055;-75
2021/03/14 10:37:29;;;;;;;5.88;1.00;;;6.50;1.00;;;;;;4902143;29;20064;-74
2021/03/14 10:39:57;;;;;;;4.85;1.35;;;6.50;1.00;;;;;;4903420;29;20130;-76
2021/03/14 10:42:30;;;;;;;2.92;0.80;;;6.50;1.00;;;;;;4903480;29;20462;-75
2021/03/14 10:45:02;;;;;;;3.08;0.95;;;6.30;1.00;;;;;;4904718;29;20044;-73
2021/03/14 10:47:29;;;;;;;4.68;1.17;;;6.10;1.00;;;;;;4902938;29;20059;-75
2021/03/14 10:50:21;;;;;;;4.30;0.98;;;6.50;1.00;;;;;;4904163;29;20055;-75
2021/03/14 10:53:06;;;;;;;3.50;1.13;;;6.40;1.00;;;;;;4890051;29;20056;-74
2021/03/14 10:55:34;;;;;;;;;;;6.30;1.00;;;;;;4904329;29;20053;-75
2021/03/14 10:58:10;;;;;;;3.00;1.25;;;6.30;1.00;;;;;;4907161;29;19931;-75
2021/03/14 11:00:41;;;;;;;3.38;1.50;;;6.20;1.00;;;;;;4910565;29;20127;-75
2021/03/14 11:03:29;;;;;;;3.67;1.25;;;6.10;1.00;;;;;;4908305;29;20056;-74
2021/03/14 11:06:19;;;;;;;3.72;1.10;;;6.20;1.00;;;;;;4907627;29;20070;-75
2021/03/14 11:08:53;;;;;;;4.20;0.80;;;6.40;1.00;;;;;;4908966;29;20423;-74
2021/03/14 11:11:23;;;;;;;5.03;1.00;;;7.00;1.00;;;;;;4907999;29;20055;-74
2021/03/14 11:13:51;;;;;;;2.53;0.90;;;6.90;1.00;;;;;;4907817;29;20418;-74
2021/03/14 11:16:23;;;;;;;4.70;1.02;;;7.30;1.00;;;;;;4907880;29;20060;-75
2021/03/14 11:19:02;;;;;;;3.67;1.00;;;6.80;1.00;;;;;;4905687;29;20499;-74
2021/03/14 11:21:29;;;;;;;3.50;0.90;;;7.00;1.00;;;;;;4907170;29;20056;-75
2021/03/14 11:23:56;;;;;;;2.88;0.80;;;6.80;1.00;;;;;;4909381;29;20048;-74
2021/03/14 11:26:30;;;;;;;3.78;1.05;;;7.20;1.00;;;;;;4906387;29;20052;-75
2021/03/14 11:28:58;;;;;;;2.80;0.77;;;7.40;1.00;;;;;;4902555;29;20048;-74
2021/03/14 11:31:24;;;;;;;2.92;0.93;;;7.20;1.00;;;;;;4908604;29;20059;-74
2021/03/14 11:33:51;;;;;;;5.55;1.02;;;7.10;1.00;;;;;;4907936;29;20048;-75
2021/03/14 11:36:18;;;;;;;3.40;1.10;;;7.20;1.00;;;;;;4907557;29;20056;-75
2021/03/14 11:38:45;;;;;;;3.83;1.27;;;7.10;1.00;;;;;;4905976;29;20052;-74
2021/03/14 11:41:12;;;;;;;4.70;0.90;;;7.20;1.00;;;;;;4907817;29;20052;-75
2021/03/14 11:43:39;;;;;;;4.00;1.38;;;7.10;1.00;;;;;;4906793;29;20053;-76
2021/03/14 11:46:07;;;;;;;3.47;1.23;;;6.60;1.00;;;;;;4904823;29;20044;-76
2021/03/14 11:48:34;;;;;;;3.17;1.20;;;6.70;1.00;;;;;;4905403;29;20555;-75
2021/03/14 11:51:01;;;;;;;1.45;0.70;;;6.80;1.00;;;;;;4907525;29;20048;-75
2021/03/14 11:53:28;;;;;;;4.30;1.33;;;6.50;1.00;;;;;;4907383;29;20061;-75
2021/03/14 11:55:55;;;;;;;6.53;1.88;;;6.80;1.00;;;;;;4906415;29;20522;-75
2021/03/14 11:58:22;;;;;;;2.72;0.95;;;7.20;1.00;;;;;;4904635;29;20637;-75
2021/03/14 12:00:49;;;;;;;4.38;1.05;;;6.70;1.00;;;;;;4906707;29;20044;-75
2021/03/14 12:03:16;;;;;;;5.43;1.42;;;6.60;1.00;;;;;;4907046;29;20131;-75
2021/03/14 12:05:44;;;;;;;2.50;1.00;;;6.80;1.00;;;;;;4907041;29;20139;-75
2021/03/14 12:08:11;;;;;;;2.28;1.00;;;7.00;1.00;;;;;;4905825;29;20048;-74
2021/03/14 12:10:37;;;;;;;4.45;1.27;;;6.90;1.00;;;;;;4907221;29;20055;-75
2021/03/14 12:13:04;;;;;;;1.98;0.77;;;6.90;1.00;;;;;;4906278;29;20529;-76
2021/03/14 12:15:31;;;;;;;4.10;0.90;;;6.70;1.00;;;;;;4906273;29;20058;-76
2021/03/14 12:17:58;;;;;;;6.78;1.08;;;6.80;1.00;;;;;;4902923;29;20055;-75
2021/03/14 12:20:27;;;;;;;4.10;0.90;;;6.90;1.00;;;;;;4906424;29;20052;-75
2021/03/14 12:22:54;;;;;;;4.88;1.00;;;6.50;1.00;;;;;;4906805;29;20410;-75
2021/03/14 12:25:21;;;;;;;5.18;1.00;;;6.80;1.00;;;;;;4906883;29;20048;-75
2021/03/14 12:27:48;;;;;;;2.50;0.82;;;7.00;1.00;;;;;;4906041;29;20049;-75
2021/03/14 12:30:16;;;;;;;4.13;0.85;;;7.40;1.00;;;;;;4913226;29;20048;-75
2021/03/14 12:32:43;;;;;;;3.10;1.17;;;6.80;1.00;;;;;;4890541;29;20063;-77
2021/03/14 12:35:11;;;;;;;2.75;0.90;;;6.20;1.00;;;;;;4898374;29;20049;-76
2021/03/14 12:37:39;;;;;;;2.03;0.75;;;6.10;1.00;;;;;;4898352;29;20048;-74
2021/03/14 12:40:07;;;;;;;3.88;1.13;;;6.20;1.00;;;;;;4915661;29;20058;-76
2021/03/14 12:42:34;;;;;;;3.40;1.13;;;6.00;1.00;;;;;;4905238;29;20495;-77
2021/03/14 12:45:01;;;;;;;2.33;0.85;;;5.80;1.00;;;;;;4909047;29;20076;-74
2021/03/14 12:47:28;;;;;;;2.60;0.90;;;6.00;1.00;;;;;;4893478;29;20719;-77
2021/03/14 12:49:58;;;;;;;3.47;1.20;;;5.70;1.00;;;;;;4907127;29;20064;-76
2021/03/14 12:52:29;;;;;;;3.42;0.73;;;5.90;1.00;;;;;;4899612;29;20064;-76
2021/03/14 12:54:57;;;;;;;6.15;1.95;;;5.70;3.10;;;;;;4901375;29;20055;-76
2021/03/14 12:57:34;;;;;;;4.45;0.90;;;5.70;5.30;;;;;;4905136;29;20107;-79
2021/03/14 13:00:02;;;;;;;2.42;0.88;;;5.80;5.30;;;;;;4907674;29;20045;-74
2021/03/14 13:02:29;;;;;;;2.35;0.70;;;5.80;5.90;;;;;;4906295;29;20136;-75
2021/03/14 13:04:56;;;;;;;5.35;1.20;;;5.50;7.40;;;;;;4907661;29;20059;-75
2021/03/14 13:07:24;;;;;;;4.05;1.67;;;5.90;10.60;;;;;;4905240;29;20060;-75
2021/03/14 13:09:50;;;;;;;2.67;0.95;;;5.50;9.30;;;;;;4906195;29;20060;-75
2021/03/14 13:12:18;;;;;;;4.80;1.65;;;5.60;9.70;;;;;;4903562;29;20048;-76
2021/03/14 13:14:45;;;;;;;3.65;0.80;;;5.80;13.20;;;;;;4906157;29;20052;-75
2021/03/14 13:17:12;;;;;;;3.17;1.05;;;6.00;11.90;;;;;;4903988;29;20538;-74
2021/03/14 13:19:39;;;;;;;2.28;1.10;;;5.70;10.10;;;;;;4905345;29;20056;-74
2021/03/14 13:22:09;;;;;;;5.20;0.80;;;5.70;11.80;;;;;;4905641;29;20415;-74